Time;durP1;ratioP1;P1;durP2;ratioP2;P2;SDS_P1;SDS_P2;PMS_P1;PMS_P2;Temp;Humidity;BMP_temperature;BMP_pressure;BME280_temperature;BME280_humidity;BME280_pressure;Samples;Min_cycle;Max_cycle;Signal;HPM_P1;HPM_P2
2023/05/15 00:01:25;;;;;;;10.68;7.68;;;;;;;;;;5047656;28;20120;-71
2023/05/15 00:03:50;;;;;;;8.82;7.50;;;;;;;;;;5052041;28;20071;-73
2023/05/15 00:06:16;;;;;;;12.50;8.52;;;;;;;;;;5054410;28;20025;-72
2023/05/15 00:08:42;;;;;;;9.57;7.80;;;;;;;;;;5034460;28;20021;-71
2023/05/15 00:11:07;;;;;;;10.52;8.13;;;;;;;;;;5033711;28;20024;-72
2023/05/15 00:13:32;;;;;;;10.85;8.82;;;;;;;;;;5033096;28;20021;-71
2023/05/15 00:15:58;;;;;;;11.60;8.88;;;;;;;;;;5033056;28;20040;-73
2023/05/15 00:18:23;;;;;;;12.63;9.27;;;;;;;;;;5023389;28;20025;-71
2023/05/15 00:20:48;;;;;;;12.35;9.85;;;;;;;;;;5052224;28;20032;-72
2023/05/15 00:23:14;;;;;;;16.00;9.70;;;;;;;;;;5034674;28;20504;-71
2023/05/15 00:25:39;;;;;;;12.15;9.63;;;;;;;;;;5030589;28;20021;-73
2023/05/15 00:28:05;;;;;;;16.63;10.35;;;;;;;;;;5039925;28;21482;-74
2023/05/15 00:30:30;;;;;;;12.38;10.20;;;;;;;;;;5053358;28;20028;-71
2023/05/15 00:32:56;;;;;;;12.60;10.20;;;;;;;;;;5052503;28;20056;-72
2023/05/15 00:35:21;;;;;;;12.95;9.60;;;;;;;;;;5041354;28;20017;-72
2023/05/15 00:37:47;;;;;;;13.38;10.10;;;;;;;;;;5049674;28;20025;-72
2023/05/15 00:40:19;;;;;;;12.77;9.80;;;;;;;;;;5052339;28;20056;-72
2023/05/15 00:42:45;;;;;;;18.58;11.30;;;;;;;;;;5047332;28;20388;-72
2023/05/15 00:45:12;;;;;;;15.90;11.25;;;;;;;;;;5053815;28;20025;-71
2023/05/15 00:47:40;;;;;;;14.57;10.98;;;;;;;;;;5031113;28;20036;-74
2023/05/15 00:50:07;;;;;;;14.40;11.75;;;;;;;;;;5051721;28;20021;-71
2023/05/15 00:52:32;;;;;;;14.90;12.25;;;;;;;;;;5047949;28;20037;-71
2023/05/15 00:54:58;;;;;;;16.52;11.50;;;;;;;;;;5052501;28;20031;-72
2023/05/15 00:57:26;;;;;;;14.52;10.73;;;;;;;;;;5045525;28;20481;-72
2023/05/15 00:59:53;;;;;;;12.82;10.55;;;;;;;;;;5035707;28;20024;-71
2023/05/15 01:02:18;;;;;;;14.02;10.70;;;;;;;;;;5049871;28;20021;-73
2023/05/15 01:04:44;;;;;;;15.10;10.82;;;;;;;;;;5048894;28;20021;-72
2023/05/15 01:07:10;;;;;;;12.57;10.35;;;;;;;;;;5034184;28;20126;-72
2023/05/15 01:09:37;;;;;;;14.23;10.27;;;;;;;;;;5054293;28;20028;-72
2023/05/15 01:12:04;;;;;;;13.85;10.27;;;;;;;;;;5047660;28;20035;-75
2023/05/15 01:14:29;;;;;;;14.27;10.18;;;;;;;;;;5031840;28;20024;-72
2023/05/15 01:16:55;;;;;;;13.93;10.10;;;;;;;;;;5050860;28;20024;-72
2023/05/15 01:19:20;;;;;;;13.85;10.45;;;;;;;;;;5045644;28;20120;-72
2023/05/15 01:22:21;;;;;;;13.88;10.95;;;;;;;;;;5028899;28;20032;-71
2023/05/15 01:25:41;;;;;;;13.40;10.30;;;;;;;;;;5047112;28;20025;-71
2023/05/15 01:28:14;;;;;;;14.30;10.73;;;;;;;;;;4991300;28;20030;-71
2023/05/15 01:30:43;;;;;;;13.18;10.65;;;;;;;;;;4986169;28;20185;-72
2023/05/15 01:33:28;;;;;;;15.55;11.00;;;;;;;;;;5023934;28;20033;-71
2023/05/15 01:36:15;;;;;;;15.50;11.60;;;;;;;;;;5052335;28;20484;-71
2023/05/15 01:38:46;;;;;;;15.35;12.15;;;;;;;;;;5029632;28;20037;-71
2023/05/15 01:41:27;;;;;;;16.08;12.30;;;;;;;;;;5046942;28;20099;-74
2023/05/15 01:43:59;;;;;;;16.35;12.00;;;;;;;;;;5047825;28;20045;-71
2023/05/15 01:46:26;;;;;;;17.35;12.23;;;;;;;;;;5034537;28;20029;-71
2023/05/15 01:48:53;;;;;;;18.08;13.80;;;;;;;;;;5048350;28;20493;-72
2023/05/15 01:51:21;;;;;;;18.77;13.23;;;;;;;;;;5051532;28;20036;-72
2023/05/15 01:53:48;;;;;;;17.90;14.13;;;;;;;;;;5033398;28;20589;-71
2023/05/15 01:56:16;;;;;;;18.67;14.25;;;;;;;;;;5048729;28;20108;-72
2023/05/15 01:58:43;;;;;;;18.50;14.35;;;;;;;;;;5048420;28;20529;-72
2023/05/15 02:01:09;;;;;;;22.30;15.77;;;;;;;;;;5047345;28;20477;-71
2023/05/15 02:03:36;;;;;;;19.45;13.77;;;;;;;;;;5053374;28;20029;-71
2023/05/15 02:06:03;;;;;;;24.63;14.98;;;;;;;;;;5052181;28;20095;-73
2023/05/15 02:08:30;;;;;;;21.27;15.35;;;;;;;;;;5049170;28;20041;-72
2023/05/15 02:10:57;;;;;;;20.92;14.90;;;;;;;;;;5034507;28;20473;-72
2023/05/15 02:13:24;;;;;;;17.08;13.45;;;;;;;;;;5037954;28;20039;-73
2023/05/15 02:15:50;;;;;;;18.75;14.02;;;;;;;;;;5053024;28;20028;-72
2023/05/15 02:18:15;;;;;;;19.08;13.63;;;;;;;;;;5046130;28;20056;-71
2023/05/15 02:20:40;;;;;;;16.20;12.45;;;;;;;;;;5047206;28;20032;-73
2023/05/15 02:23:06;;;;;;;19.02;13.95;;;;;;;;;;5025502;28;20036;-74
2023/05/15 02:25:59;;;;;;;18.90;14.07;;;;;;;;;;5033892;28;20486;-71
2023/05/15 02:28:36;;;;;;;17.60;14.20;;;;;;;;;;5046213;28;20116;-73
2023/05/15 02:31:41;;;;;;;19.70;14.45;;;;;;;;;;5025739;28;20076;-72
2023/05/15 02:34:11;;;;;;;20.35;15.57;;;;;;;;;;5013103;28;20045;-71
2023/05/15 02:36:40;;;;;;;21.83;16.58;;;;;;;;;;5032943;28;20052;-72
2023/05/15 02:39:06;;;;;;;22.15;16.30;;;;;;;;;;5049313;28;20021;-72
2023/05/15 02:41:34;;;;;;;21.92;16.05;;;;;;;;;;5035470;28;20370;-72
2023/05/15 02:44:01;;;;;;;21.38;16.08;;;;;;;;;;5030248;28;20376;-71
2023/05/15 02:46:27;;;;;;;22.98;16.17;;;;;;;;;;5047392;28;20032;-72
2023/05/15 02:48:53;;;;;;;20.58;15.38;;;;;;;;;;5057690;28;20029;-71
2023/05/15 02:51:19;;;;;;;23.45;16.58;;;;;;;;;;5052431;28;20104;-71
2023/05/15 02:53:45;;;;;;;26.02;17.08;;;;;;;;;;5049405;28;20386;-72
2023/05/15 02:56:10;;;;;;;28.45;17.58;;;;;;;;;;5052630;28;20025;-72
2023/05/15 02:58:37;;;;;;;26.23;17.52;;;;;;;;;;5053063;28;20391;-74
2023/05/15 03:01:03;;;;;;;29.05;18.13;;;;;;;;;;5052896;28;20025;-73
2023/05/15 03:03:28;;;;;;;29.73;18.10;;;;;;;;;;5052406;28;20044;-71
2023/05/15 03:05:54;;;;;;;28.40;18.60;;;;;;;;;;5045880;28;20024;-72
2023/05/15 03:08:20;;;;;;;26.85;18.40;;;;;;;;;;5049472;28;20035;-72
2023/05/15 03:10:46;;;;;;;26.67;17.83;;;;;;;;;;5030592;28;20024;-71
2023/05/15 03:13:11;;;;;;;29.52;18.77;;;;;;;;;;5046381;28;20033;-72
2023/05/15 03:15:36;;;;;;;29.65;19.10;;;;;;;;;;5050083;28;20474;-73
2023/05/15 03:18:02;;;;;;;34.17;20.30;;;;;;;;;;5027129;28;20033;-72
2023/05/15 03:20:27;;;;;;;30.50;19.42;;;;;;;;;;5031185;28;20025;-71
2023/05/15 03:22:52;;;;;;;35.40;19.38;;;;;;;;;;5025926;28;20120;-72
2023/05/15 03:25:18;;;;;;;31.05;18.35;;;;;;;;;;5035225;28;20052;-72
2023/05/15 03:27:43;;;;;;;30.45;19.42;;;;;;;;;;5050745;28;20041;-72
2023/05/15 03:30:09;;;;;;;30.02;17.48;;;;;;;;;;5048760;28;20029;-71
2023/05/15 03:32:34;;;;;;;31.83;19.08;;;;;;;;;;5051014;28;20029;-72
2023/05/15 03:35:00;;;;;;;32.55;18.50;;;;;;;;;;5043782;28;20037;-75
2023/05/15 03:37:25;;;;;;;32.00;17.80;;;;;;;;;;5047282;28;20033;-72
2023/05/15 03:39:50;;;;;;;29.02;17.55;;;;;;;;;;5047251;28;20035;-71
2023/05/15 03:42:22;;;;;;;30.88;17.52;;;;;;;;;;5047341;28;20021;-72
2023/05/15 03:44:47;;;;;;;27.10;17.80;;;;;;;;;;5048599;28;20021;-72
2023/05/15 03:47:13;;;;;;;29.20;17.80;;;;;;;;;;5044010;28;20389;-72
2023/05/15 03:49:38;;;;;;;27.88;17.70;;;;;;;;;;5047989;28;20044;-73
2023/05/15 03:52:04;;;;;;;29.83;17.15;;;;;;;;;;5030626;28;20048;-72
2023/05/15 03:54:29;;;;;;;26.80;17.15;;;;;;;;;;5047219;28;20094;-72
2023/05/15 03:56:55;;;;;;;26.58;16.48;;;;;;;;;;5046281;28;20028;-71
2023/05/15 03:59:21;;;;;;;27.45;17.55;;;;;;;;;;5046189;28;20029;-73
2023/05/15 04:01:46;;;;;;;26.33;16.88;;;;;;;;;;5024952;28;20171;-72
2023/05/15 04:04:11;;;;;;;27.85;16.52;;;;;;;;;;5022107;28;20025;-72
2023/05/15 04:06:37;;;;;;;26.17;15.32;;;;;;;;;;5045294;28;20032;-71
2023/05/15 04:09:02;;;;;;;27.48;16.25;;;;;;;;;;5047928;28;20036;-71
2023/05/15 04:11:27;;;;;;;28.73;16.58;;;;;;;;;;5047167;28;20028;-71
2023/05/15 04:13:53;;;;;;;27.75;16.90;;;;;;;;;;5048317;28;20037;-71
2023/05/15 04:16:18;;;;;;;26.33;16.90;;;;;;;;;;5053573;28;20124;-71
2023/05/15 04:18:44;;;;;;;26.48;16.58;;;;;;;;;;5044992;28;20028;-71
2023/05/15 04:21:09;;;;;;;29.83;18.13;;;;;;;;;;5050634;28;20520;-71
2023/05/15 04:23:34;;;;;;;28.10;16.35;;;;;;;;;;5034429;28;20122;-70
2023/05/15 04:26:00;;;;;;;26.40;15.48;;;;;;;;;;5052910;28;20032;-71
2023/05/15 04:28:25;;;;;;;25.15;15.45;;;;;;;;;;5047531;28;20025;-72
2023/05/15 04:30:51;;;;;;;23.63;15.32;;;;;;;;;;5046901;28;20067;-72
2023/05/15 04:33:16;;;;;;;25.42;15.48;;;;;;;;;;5051312;28;20119;-71
2023/05/15 04:35:42;;;;;;;26.10;15.10;;;;;;;;;;5032159;28;20035;-71
2023/05/15 04:38:07;;;;;;;23.20;14.85;;;;;;;;;;5032825;28;20029;-76
2023/05/15 04:40:32;;;;;;;25.42;15.40;;;;;;;;;;5047228;28;20028;-76
2023/05/15 04:42:58;;;;;;;25.08;14.48;;;;;;;;;;5024414;28;20086;-76
2023/05/15 04:45:23;;;;;;;21.58;13.40;;;;;;;;;;5045304;28;20029;-76
2023/05/15 04:47:49;;;;;;;21.02;14.52;;;;;;;;;;5031003;28;20025;-76
2023/05/15 04:50:14;;;;;;;22.85;14.00;;;;;;;;;;5026501;28;20029;-76
2023/05/15 04:52:41;;;;;;;25.35;14.32;;;;;;;;;;5046295;28;20492;-76
2023/05/15 04:55:08;;;;;;;21.10;14.00;;;;;;;;;;5043881;28;20113;-76
2023/05/15 04:57:33;;;;;;;21.15;14.23;;;;;;;;;;5048809;28;20047;-76
2023/05/15 04:59:59;;;;;;;20.25;13.57;;;;;;;;;;5050262;28;20052;-76
2023/05/15 05:02:24;;;;;;;23.25;14.27;;;;;;;;;;5040894;28;20075;-76
2023/05/15 05:04:50;;;;;;;23.05;14.13;;;;;;;;;;5043649;28;20409;-76
2023/05/15 05:07:15;;;;;;;22.30;14.45;;;;;;;;;;5048317;28;20032;-76
2023/05/15 05:09:41;;;;;;;21.85;14.20;;;;;;;;;;5027674;28;20341;-76
2023/05/15 05:12:08;;;;;;;21.13;13.77;;;;;;;;;;5045760;28;20017;-76
2023/05/15 05:14:33;;;;;;;20.60;13.88;;;;;;;;;;5045328;28;20091;-76
2023/05/15 05:16:58;;;;;;;22.67;14.77;;;;;;;;;;5030092;28;20072;-76
2023/05/15 05:19:24;;;;;;;22.50;15.43;;;;;;;;;;5033120;28;20487;-76
2023/05/15 05:21:50;;;;;;;22.67;15.80;;;;;;;;;;5049375;28;20388;-76
2023/05/15 05:24:16;;;;;;;23.30;15.68;;;;;;;;;;5052618;28;20095;-76
2023/05/15 05:26:44;;;;;;;23.92;16.00;;;;;;;;;;5050979;28;20038;-76
2023/05/15 05:29:10;;;;;;;23.08;15.57;;;;;;;;;;5052758;28;20033;-76
2023/05/15 05:31:35;;;;;;;20.90;14.25;;;;;;;;;;5051770;28;20095;-77
2023/05/15 05:34:00;;;;;;;22.60;15.60;;;;;;;;;;5049072;28;20060;-76
2023/05/15 05:36:26;;;;;;;22.23;15.60;;;;;;;;;;5045437;28;20029;-76
2023/05/15 05:38:51;;;;;;;19.73;13.45;;;;;;;;;;5048583;28;20032;-76
2023/05/15 05:41:16;;;;;;;20.25;14.68;;;;;;;;;;5051013;28;20036;-76
2023/05/15 05:43:42;;;;;;;20.23;14.00;;;;;;;;;;5047653;28;20036;-76
2023/05/15 05:46:07;;;;;;;22.80;15.77;;;;;;;;;;5051267;28;20393;-76
2023/05/15 05:48:33;;;;;;;23.15;16.10;;;;;;;;;;5045161;28;20620;-76
2023/05/15 05:50:58;;;;;;;21.70;15.23;;;;;;;;;;5026697;28;20031;-76
2023/05/15 05:53:23;;;;;;;21.52;15.23;;;;;;;;;;5047537;28;20027;-76
2023/05/15 05:55:49;;;;;;;19.83;14.70;;;;;;;;;;5051752;28;20404;-76
2023/05/15 05:58:16;;;;;;;21.95;14.82;;;;;;;;;;5024208;28;20040;-75
2023/05/15 06:00:41;;;;;;;19.73;14.27;;;;;;;;;;5053769;28;20035;-76
2023/05/15 06:03:07;;;;;;;22.02;14.07;;;;;;;;;;5028971;28;20028;-77
2023/05/15 06:05:33;;;;;;;18.63;13.57;;;;;;;;;;5052696;28;20017;-76
2023/05/15 06:07:59;;;;;;;20.92;14.23;;;;;;;;;;5050806;28;20064;-76
2023/05/15 06:10:25;;;;;;;22.73;14.15;;;;;;;;;;5042376;28;20032;-76
2023/05/15 06:12:51;;;;;;;17.17;13.65;;;;;;;;;;5040385;28;20053;-76
2023/05/15 06:15:16;;;;;;;19.90;13.65;;;;;;;;;;5049249;28;20080;-76
2023/05/15 06:17:41;;;;;;;17.27;12.88;;;;;;;;;;5047328;28;20438;-76
2023/05/15 06:20:08;;;;;;;18.25;11.98;;;;;;;;;;5044710;28;20023;-77
2023/05/15 06:22:35;;;;;;;14.38;11.18;;;;;;;;;;5042771;28;20416;-76
2023/05/15 06:25:03;;;;;;;17.25;11.00;;;;;;;;;;5044964;28;20597;-75
2023/05/15 06:27:29;;;;;;;14.90;10.45;;;;;;;;;;5052020;28;20478;-76
2023/05/15 06:29:54;;;;;;;14.77;10.43;;;;;;;;;;5053518;28;20021;-76
2023/05/15 06:32:20;;;;;;;14.00;11.05;;;;;;;;;;5045321;28;20393;-77
2023/05/15 06:34:45;;;;;;;19.00;13.13;;;;;;;;;;5049098;28;20036;-76
2023/05/15 06:37:11;;;;;;;17.70;12.60;;;;;;;;;;5027077;28;20033;-77
2023/05/15 06:39:36;;;;;;;16.77;11.90;;;;;;;;;;5035757;28;20044;-76
2023/05/15 06:42:02;;;;;;;16.77;11.98;;;;;;;;;;5048328;28;20058;-76
2023/05/15 06:44:29;;;;;;;16.00;11.98;;;;;;;;;;5047277;28;20032;-77
2023/05/15 06:46:55;;;;;;;17.10;12.05;;;;;;;;;;5035532;28;20098;-76
2023/05/15 06:49:20;;;;;;;17.92;13.27;;;;;;;;;;5051195;28;20104;-77
2023/05/15 06:51:45;;;;;;;19.13;12.25;;;;;;;;;;5053758;28;20146;-77
2023/05/15 06:54:11;;;;;;;16.88;11.98;;;;;;;;;;5053595;28;20029;-77
2023/05/15 06:56:36;;;;;;;18.92;12.32;;;;;;;;;;5035661;28;20036;-76
2023/05/15 06:59:01;;;;;;;25.48;15.77;;;;;;;;;;5051107;28;20118;-77
2023/05/15 07:01:27;;;;;;;20.10;14.73;;;;;;;;;;5031056;28;20064;-76
2023/05/15 07:03:52;;;;;;;19.63;14.98;;;;;;;;;;5050414;28;20036;-77
2023/05/15 07:06:17;;;;;;;20.52;13.30;;;;;;;;;;5051043;28;20464;-76
2023/05/15 07:08:43;;;;;;;21.42;16.00;;;;;;;;;;5048881;28;20378;-76
2023/05/15 07:11:08;;;;;;;24.38;15.85;;;;;;;;;;5034782;28;20354;-76
2023/05/15 07:13:34;;;;;;;26.05;17.30;;;;;;;;;;5050327;28;20068;-76
2023/05/15 07:15:59;;;;;;;27.42;18.15;;;;;;;;;;5049045;28;20087;-76
2023/05/15 07:18:24;;;;;;;24.20;17.33;;;;;;;;;;5051247;28;20041;-77
2023/05/15 07:20:50;;;;;;;24.35;17.50;;;;;;;;;;5052231;28;20141;-77
2023/05/15 07:23:15;;;;;;;22.75;17.17;;;;;;;;;;5050634;28;20465;-76
2023/05/15 07:25:40;;;;;;;23.13;16.02;;;;;;;;;;5056532;28;20028;-77
2023/05/15 07:28:06;;;;;;;21.38;15.65;;;;;;;;;;5047361;28;20025;-77
2023/05/15 07:30:31;;;;;;;23.70;15.15;;;;;;;;;;5042272;28;20083;-77
2023/05/15 07:32:56;;;;;;;21.35;15.80;;;;;;;;;;5028022;28;20080;-77
2023/05/15 07:35:22;;;;;;;22.50;16.25;;;;;;;;;;5051683;28;20043;-77
2023/05/15 07:37:47;;;;;;;20.20;15.05;;;;;;;;;;5040652;28;20388;-77
2023/05/15 07:40:14;;;;;;;20.55;15.68;;;;;;;;;;5042423;28;20092;-77
2023/05/15 07:42:39;;;;;;;22.90;15.40;;;;;;;;;;5052567;28;20027;-77
2023/05/15 07:45:06;;;;;;;24.83;15.88;;;;;;;;;;5051237;28;20495;-76
2023/05/15 07:47:31;;;;;;;22.13;16.33;;;;;;;;;;5048769;28;20037;-77
2023/05/15 07:49:56;;;;;;;20.60;16.08;;;;;;;;;;5037693;28;20025;-76
2023/05/15 07:52:22;;;;;;;21.23;15.57;;;;;;;;;;5023476;28;20018;-77
2023/05/15 07:54:47;;;;;;;25.27;16.83;;;;;;;;;;5051259;28;20021;-77
2023/05/15 07:57:13;;;;;;;21.45;16.42;;;;;;;;;;5050005;28;20116;-76
2023/05/15 07:59:38;;;;;;;22.83;16.20;;;;;;;;;;5047656;28;20025;-76
2023/05/15 08:02:03;;;;;;;23.77;16.08;;;;;;;;;;5044635;28;20099;-77
2023/05/15 08:04:29;;;;;;;22.42;15.30;;;;;;;;;;5048373;28;20389;-77
2023/05/15 08:06:54;;;;;;;21.63;15.85;;;;;;;;;;5046219;28;20024;-76
2023/05/15 08:09:20;;;;;;;26.00;16.33;;;;;;;;;;5038361;28;20028;-76
2023/05/15 08:11:45;;;;;;;23.95;17.13;;;;;;;;;;5033013;28;20028;-76
2023/05/15 08:14:10;;;;;;;23.52;17.45;;;;;;;;;;5050210;28;20033;-76
2023/05/15 08:16:36;;;;;;;25.10;17.55;;;;;;;;;;5048629;28;20029;-76
2023/05/15 08:19:03;;;;;;;25.70;17.65;;;;;;;;;;5051672;28;20048;-76
2023/05/15 08:21:30;;;;;;;22.77;17.30;;;;;;;;;;5047640;28;20397;-77
2023/05/15 08:23:56;;;;;;;25.45;18.08;;;;;;;;;;5032999;28;20029;-76
2023/05/15 08:26:21;;;;;;;23.10;16.70;;;;;;;;;;5043431;28;20487;-76
2023/05/15 08:28:46;;;;;;;24.90;17.80;;;;;;;;;;5035986;28;20029;-77
2023/05/15 08:31:12;;;;;;;24.00;17.52;;;;;;;;;;5043523;28;20045;-77
2023/05/15 08:33:37;;;;;;;24.92;18.48;;;;;;;;;;5049041;28;20504;-77
2023/05/15 08:36:02;;;;;;;24.20;17.85;;;;;;;;;;5028862;28;20032;-77
2023/05/15 08:38:28;;;;;;;26.30;18.58;;;;;;;;;;5047964;28;20473;-77
2023/05/15 08:40:57;;;;;;;26.25;18.13;;;;;;;;;;5050082;28;20029;-77
2023/05/15 08:43:25;;;;;;;24.88;18.15;;;;;;;;;;5050302;28;20106;-77
2023/05/15 08:45:53;;;;;;;25.40;18.55;;;;;;;;;;5033397;28;20025;-76
2023/05/15 08:48:19;;;;;;;25.65;18.40;;;;;;;;;;5035558;28;20111;-77
2023/05/15 08:50:45;;;;;;;26.40;19.27;;;;;;;;;;5022978;28;20482;-77
2023/05/15 08:53:12;;;;;;;28.77;19.42;;;;;;;;;;5008647;28;20033;-77
2023/05/15 08:55:37;;;;;;;26.77;19.33;;;;;;;;;;5029553;28;20149;-77
2023/05/15 08:58:03;;;;;;;25.33;18.98;;;;;;;;;;5032446;28;20100;-77
2023/05/15 09:00:29;;;;;;;26.70;19.27;;;;;;;;;;5028926;28;20530;-77
2023/05/15 09:02:58;;;;;;;26.70;19.42;;;;;;;;;;5027888;28;20030;-77
2023/05/15 09:05:23;;;;;;;26.63;20.13;;;;;;;;;;5030595;28;20025;-76
2023/05/15 09:07:51;;;;;;;26.98;19.00;;;;;;;;;;5028636;28;20048;-76
2023/05/15 09:10:17;;;;;;;24.48;19.05;;;;;;;;;;5021069;28;20028;-75
2023/05/15 09:12:43;;;;;;;24.58;18.27;;;;;;;;;;5009830;28;20063;-76
2023/05/15 09:15:10;;;;;;;23.67;16.20;;;;;;;;;;5028278;28;20134;-77
2023/05/15 09:17:35;;;;;;;22.33;16.05;;;;;;;;;;5019939;28;20445;-76
2023/05/15 09:20:04;;;;;;;24.02;16.30;;;;;;;;;;5031148;28;20112;-77
2023/05/15 09:22:33;;;;;;;23.75;16.52;;;;;;;;;;5031236;28;20557;-77
2023/05/15 09:24:58;;;;;;;21.88;16.27;;;;;;;;;;5027671;28;20052;-76
2023/05/15 09:27:23;;;;;;;21.92;15.60;;;;;;;;;;5027406;28;20507;-77
2023/05/15 09:29:53;;;;;;;24.27;16.38;;;;;;;;;;5014482;28;20114;-76
2023/05/15 09:32:19;;;;;;;23.02;16.90;;;;;;;;;;5014877;28;20028;-76
2023/05/15 09:34:45;;;;;;;23.50;16.83;;;;;;;;;;5016657;28;20116;-76
2023/05/15 09:37:26;;;;;;;23.55;16.88;;;;;;;;;;5033938;28;20477;-77
2023/05/15 09:39:52;;;;;;;22.13;16.20;;;;;;;;;;5025968;28;20057;-76
2023/05/15 09:42:17;;;;;;;23.90;16.02;;;;;;;;;;5014102;28;20059;-77
2023/05/15 09:44:43;;;;;;;21.67;16.05;;;;;;;;;;5006613;28;20462;-76
2023/05/15 09:47:10;;;;;;;22.92;16.70;;;;;;;;;;5030081;28;20040;-77
2023/05/15 09:49:35;;;;;;;29.15;18.65;;;;;;;;;;5028147;28;20025;-76
2023/05/15 09:52:02;;;;;;;27.80;16.80;;;;;;;;;;5051868;28;20029;-76
2023/05/15 09:54:30;;;;;;;26.50;17.42;;;;;;;;;;5034669;28;20104;-76
2023/05/15 09:57:05;;;;;;;25.05;16.52;;;;;;;;;;5052583;28;20553;-76
2023/05/15 09:59:31;;;;;;;24.10;17.52;;;;;;;;;;5043718;28;20135;-76
2023/05/15 10:01:56;;;;;;;22.42;16.35;;;;;;;;;;5049021;28;20115;-77
2023/05/15 10:04:21;;;;;;;22.83;16.13;;;;;;;;;;5049465;28;20024;-76
2023/05/15 10:06:47;;;;;;;23.05;16.02;;;;;;;;;;5044746;28;20029;-76
2023/05/15 10:09:14;;;;;;;22.00;16.15;;;;;;;;;;5047455;28;20050;-75
2023/05/15 10:11:44;;;;;;;20.90;16.98;;;;;;;;;;5033772;28;20029;-76
2023/05/15 10:14:13;;;;;;;25.08;16.17;;;;;;;;;;5042149;28;20123;-76
2023/05/15 10:16:39;;;;;;;21.27;15.13;;;;;;;;;;5052582;28;20035;-76
2023/05/15 10:19:09;;;;;;;20.58;15.00;;;;;;;;;;5047845;28;20029;-76
2023/05/15 10:21:40;;;;;;;21.98;14.85;;;;;;;;;;5051369;28;20037;-76
2023/05/15 10:24:07;;;;;;;22.98;15.55;;;;;;;;;;5021971;28;20025;-77
2023/05/15 10:26:37;;;;;;;19.63;14.38;;;;;;;;;;5040757;28;20571;-77
2023/05/15 10:29:11;;;;;;;17.67;13.52;;;;;;;;;;5040346;28;20029;-76
2023/05/15 10:31:38;;;;;;;20.88;13.23;;;;;;;;;;5027635;28;20504;-76
2023/05/15 10:34:04;;;;;;;20.40;14.45;;;;;;;;;;5042190;28;20087;-77
2023/05/15 10:36:34;;;;;;;19.17;13.63;;;;;;;;;;5050342;28;20228;-76
2023/05/15 10:39:01;;;;;;;21.30;14.52;;;;;;;;;;5047716;28;20032;-76
2023/05/15 10:41:31;;;;;;;26.02;13.40;;;;;;;;;;5041501;28;20028;-76
2023/05/15 10:43:58;;;;;;;19.40;14.38;;;;;;;;;;5051431;28;20500;-77
2023/05/15 10:46:25;;;;;;;21.08;15.10;;;;;;;;;;5025870;28;20052;-76
2023/05/15 10:48:50;;;;;;;20.75;14.05;;;;;;;;;;5056767;28;20028;-76
2023/05/15 10:51:27;;;;;;;22.45;14.55;;;;;;;;;;5043374;28;20385;-76
2023/05/15 10:53:53;;;;;;;20.55;14.52;;;;;;;;;;5051941;28;20028;-76
2023/05/15 10:56:20;;;;;;;19.70;14.20;;;;;;;;;;5049935;28;20036;-77
2023/05/15 10:58:50;;;;;;;23.65;14.65;;;;;;;;;;5048868;28;20032;-76
2023/05/15 11:01:29;;;;;;;19.95;14.40;;;;;;;;;;5049971;28;20024;-76
2023/05/15 11:04:15;;;;;;;21.55;14.68;;;;;;;;;;5050218;28;20512;-76
2023/05/15 11:06:43;;;;;;;21.42;14.13;;;;;;;;;;5052433;28;20081;-76
2023/05/15 11:09:20;;;;;;;22.85;14.10;;;;;;;;;;5030932;28;20040;-76
2023/05/15 11:11:51;;;;;;;22.10;14.70;;;;;;;;;;5051641;28;20071;-76
2023/05/15 11:14:17;;;;;;;20.15;14.35;;;;;;;;;;5048183;28;20025;-76
2023/05/15 11:16:52;;;;;;;22.05;14.82;;;;;;;;;;5049291;28;20516;-76
2023/05/15 11:19:33;;;;;;;22.85;15.20;;;;;;;;;;5027253;28;20024;-76
2023/05/15 11:22:25;;;;;;;22.00;15.15;;;;;;;;;;5048464;28;20029;-76
2023/05/15 11:25:00;;;;;;;23.27;14.95;;;;;;;;;;5029094;28;20051;-76
2023/05/15 11:27:28;;;;;;;22.90;15.38;;;;;;;;;;5047808;28;20661;-76
2023/05/15 11:30:06;;;;;;;20.75;15.13;;;;;;;;;;5043308;28;20032;-76
2023/05/15 11:32:54;;;;;;;23.63;15.10;;;;;;;;;;5045661;28;20029;-76
2023/05/15 11:35:27;;;;;;;20.98;14.93;;;;;;;;;;5041930;28;20459;-76
2023/05/15 11:37:57;;;;;;;25.35;16.30;;;;;;;;;;5029616;28;20485;-76
2023/05/15 11:40:30;;;;;;;22.40;14.82;;;;;;;;;;5049539;28;20043;-75
2023/05/15 11:43:02;;;;;;;23.85;15.60;;;;;;;;;;5038850;28;20029;-76
2023/05/15 11:45:29;;;;;;;27.05;17.83;;;;;;;;;;5023545;28;20021;-76
2023/05/15 11:47:55;;;;;;;27.33;16.88;;;;;;;;;;5046094;28;20388;-76
2023/05/15 11:50:21;;;;;;;25.70;16.38;;;;;;;;;;5034381;28;20107;-76
2023/05/15 11:52:48;;;;;;;26.05;17.20;;;;;;;;;;5039400;28;20025;-76
2023/05/15 11:55:15;;;;;;;28.88;18.25;;;;;;;;;;5044824;28;20029;-77
2023/05/15 11:57:40;;;;;;;30.45;18.55;;;;;;;;;;5037165;28;20048;-76
2023/05/15 12:00:07;;;;;;;27.92;18.60;;;;;;;;;;5045808;28;20024;-76
2023/05/15 12:02:33;;;;;;;30.48;18.40;;;;;;;;;;5038802;28;20111;-77
2023/05/15 12:04:58;;;;;;;29.75;19.20;;;;;;;;;;5050232;28;20051;-76
2023/05/15 12:07:23;;;;;;;32.25;19.70;;;;;;;;;;5044099;28;20033;-76
2023/05/15 12:09:51;;;;;;;31.63;18.60;;;;;;;;;;5043929;28;20040;-75
2023/05/15 12:12:16;;;;;;;31.45;19.35;;;;;;;;;;5044882;28;20045;-77
2023/05/15 12:14:42;;;;;;;30.70;18.60;;;;;;;;;;5041347;28;20067;-76
2023/05/15 12:17:07;;;;;;;31.08;18.35;;;;;;;;;;5042659;28;20036;-76
2023/05/15 12:19:34;;;;;;;31.40;18.08;;;;;;;;;;5042863;28;20029;-75
2023/05/15 12:21:59;;;;;;;30.90;18.05;;;;;;;;;;5041437;28;20509;-75
2023/05/15 12:24:25;;;;;;;34.20;20.20;;;;;;;;;;5043958;28;20021;-76
2023/05/15 12:26:51;;;;;;;36.17;20.25;;;;;;;;;;5045296;28;20064;-76
2023/05/15 12:29:17;;;;;;;35.25;20.38;;;;;;;;;;5049118;28;20480;-76
2023/05/15 12:31:43;;;;;;;35.53;20.60;;;;;;;;;;5053303;28;20468;-75
2023/05/15 12:34:09;;;;;;;35.58;20.15;;;;;;;;;;5031829;28;20035;-76
2023/05/15 12:36:34;;;;;;;36.10;20.30;;;;;;;;;;5048794;28;20028;-76
2023/05/15 12:39:05;;;;;;;36.67;19.85;;;;;;;;;;5049374;28;20061;-76
2023/05/15 12:41:30;;;;;;;32.30;19.02;;;;;;;;;;5049363;28;20464;-76
2023/05/15 12:43:56;;;;;;;33.22;19.80;;;;;;;;;;5048316;28;20056;-76
2023/05/15 12:46:23;;;;;;;31.17;18.48;;;;;;;;;;5054979;28;20030;-76
2023/05/15 12:48:49;;;;;;;32.97;18.90;;;;;;;;;;5033871;28;20033;-75
2023/05/15 12:51:15;;;;;;;30.95;18.85;;;;;;;;;;5031015;28;20094;-76
2023/05/15 12:53:41;;;;;;;33.85;18.83;;;;;;;;;;5039101;28;20040;-76
2023/05/15 12:56:14;;;;;;;30.35;18.13;;;;;;;;;;5026754;28;20433;-76
2023/05/15 12:58:40;;;;;;;30.60;18.52;;;;;;;;;;5044405;28;20041;-76
2023/05/15 13:01:05;;;;;;;31.60;18.90;;;;;;;;;;5051467;28;20499;-76
2023/05/15 13:03:31;;;;;;;30.80;18.13;;;;;;;;;;5046005;28;20393;-76
2023/05/15 13:05:56;;;;;;;34.85;20.55;;;;;;;;;;5045728;28;20047;-76
2023/05/15 13:08:22;;;;;;;35.63;19.50;;;;;;;;;;5051747;28;20064;-76
2023/05/15 13:10:55;;;;;;;33.88;19.70;;;;;;;;;;5051376;28;20034;-75
2023/05/15 13:13:21;;;;;;;33.38;19.85;;;;;;;;;;5057075;28;20056;-76
2023/05/15 13:15:47;;;;;;;33.58;20.10;;;;;;;;;;5054984;28;20064;-76
2023/05/15 13:18:14;;;;;;;34.10;19.60;;;;;;;;;;5031766;28;20454;-76
2023/05/15 13:20:45;;;;;;;35.28;20.10;;;;;;;;;;5029617;28;20107;-75
2023/05/15 13:23:16;;;;;;;38.95;21.33;;;;;;;;;;5049420;28;20427;-76
2023/05/15 13:25:41;;;;;;;36.10;19.88;;;;;;;;;;5048018;28;20044;-76
2023/05/15 13:28:09;;;;;;;32.17;19.58;;;;;;;;;;5053988;28;20023;-76
2023/05/15 13:30:35;;;;;;;29.92;18.92;;;;;;;;;;5049426;28;20021;-76
2023/05/15 13:33:01;;;;;;;29.60;18.20;;;;;;;;;;5049421;28;20025;-75
2023/05/15 13:35:27;;;;;;;28.27;17.55;;;;;;;;;;5047722;28;20116;-75
2023/05/15 13:37:52;;;;;;;25.98;16.85;;;;;;;;;;5046475;28;20111;-74
2023/05/15 13:40:18;;;;;;;20.75;13.50;;;;;;;;;;5048250;28;20017;-76
2023/05/15 13:42:44;;;;;;;18.98;12.10;;;;;;;;;;5050586;28;20112;-75
2023/05/15 13:45:11;;;;;;;19.92;11.52;;;;;;;;;;5054328;28;20107;-76
2023/05/15 13:47:39;;;;;;;14.82;11.02;;;;;;;;;;5036771;28;20481;-76
2023/05/15 13:50:09;;;;;;;14.13;9.65;;;;;;;;;;5024309;28;20542;-76
2023/05/15 13:52:35;;;;;;;14.32;9.70;;;;;;;;;;5052795;28;20462;-76
2023/05/15 13:55:01;;;;;;;11.73;9.15;;;;;;;;;;5054515;28;20029;-76
2023/05/15 13:57:26;;;;;;;14.20;8.40;;;;;;;;;;5029049;28;20037;-75
2023/05/15 13:59:52;;;;;;;10.85;7.30;;;;;;;;;;5033175;28;20499;-76
2023/05/15 14:02:17;;;;;;;9.40;7.00;;;;;;;;;;5033086;28;20106;-76
2023/05/15 14:04:43;;;;;;;9.90;6.65;;;;;;;;;;5046994;28;20021;-76
2023/05/15 14:07:08;;;;;;;10.48;6.80;;;;;;;;;;5044878;28;20033;-76
2023/05/15 14:09:33;;;;;;;10.38;6.65;;;;;;;;;;5035054;28;20049;-76
2023/05/15 14:11:59;;;;;;;11.82;7.03;;;;;;;;;;5049721;28;20055;-75
2023/05/15 14:14:24;;;;;;;13.60;7.70;;;;;;;;;;5034867;28;20473;-76
2023/05/15 14:16:49;;;;;;;11.95;7.20;;;;;;;;;;5055063;28;20030;-75
2023/05/15 14:19:15;;;;;;;10.48;6.75;;;;;;;;;;5059657;28;20456;-76